Impacts TAF Board INFO
FOR SITUATIONAL AWARENESS. NOT TO BE USED FOR FLIGHT PLANNING PURPOSES.
IDs:

KORD - Chicago/O'Hare Intl, IL, US

Issued at 1138 UTC 12 Dec 2017
Updated at 1208 UTC 12 Dec 2017
Potential Impact None Slight Moderate High
Time1151Z 12/13Z 12/14Z 12/15Z 12/16Z 12/17Z 12/18Z 12/19Z 12/20Z 12/21Z 12/22Z 12/23Z 13/00Z 13/01Z>>
Type OBS PRVL PRVL PRVL PRVL PRVL PRVL PRVL PRVL PRVL PRVL PRVL PRVL PRVL
VIS 10 >6 >6 >6 >6 >6 >6 >6 >6 >6 >6 >6 >6 >6
CIG -- -- -- -- -- -- -- -- -- -- -- 100 100 100
Cover SCT SCT SCT SCT SCT SCT SCT SCT SCT SCT SCT BKN BKN BKN
FltCat VFR VFR VFR VFR VFR VFR VFR VFR VFR VFR VFR VFR VFR VFR
WX -- -- -- -- -- -- -- -- -- -- -- -- -- --
WDir 320 330 330 330 330 330 330 330 330 330 330 300 300 300
WSpd 12 14 14 14 14 14 14 14 14 14 14 9 9 9
WGst 23 23 23 23 23 23 23 23 23 23 23 -- -- --

Raw TAF
KORD 121138Z 1212/1318 33014G23KT P6SM SCT035 SCT200
  FM122300 30009KT P6SM BKN100
  FM130700 20006KT P6SM SCT045 OVC080
  FM131100 17010KT P6SM FEW030 OVC045
  PROB30 1312/1316 3SM -SN BKN030


Raw METAR
KORD 121151Z 32012G23KT 10SM FEW040 SCT200 M07/M14 A3004 RMK AO2 SLP183 4/001 60001 70009 T10721139 11006 21072 51018 $
KORD 121051Z 31016G21KT 10SM FEW040 M07/M13 A3003 RMK AO2 SLP177 T10671133 $
KORD 120951Z 34017G22KT 10SM FEW030 M06/M12 A3001 RMK AO2 PK WND 34027/0916 SNE0857 SLP169 P0000 T10561117 $

METAR Board
Radar Display
Forecast Discussion

FOR SITUATIONAL AWARENESS. NOT TO BE USED FOR FLIGHT PLANNING PURPOSES.